Time;durP1;ratioP1;P1;durP2;ratioP2;P2;SDS_P1;SDS_P2;PMS_P1;PMS_P2;Temp;Humidity;BMP_temperature;BMP_pressure;BME280_temperature;BME280_humidity;BME280_pressure;Samples;Min_cycle;Max_cycle;Signal;HPM_P1;HPM_P2
2024/02/23 00:02:18;;;;;;;3.57;0.63;;;;;4.90;98459.00;;;;9979819;29;20229;-76
2024/02/23 00:07:20;;;;;;;2.20;0.80;;;;;4.90;98487.00;;;;10006082;29;20229;-77
2024/02/23 00:12:21;;;;;;;3.07;0.80;;;;;4.90;98497.00;;;;9980642;29;20238;-76
2024/02/23 00:17:23;;;;;;;1.90;0.60;;;;;4.90;98494.00;;;;9983184;29;20221;-76
2024/02/23 00:22:25;;;;;;;3.63;1.40;;;;;4.90;98509.00;;;;9975401;29;20238;-76
2024/02/23 00:27:26;;;;;;;5.73;1.10;;;;;4.90;98508.00;;;;9997372;29;20264;-77
2024/02/23 00:32:27;;;;;;;2.57;0.80;;;;;4.80;98514.00;;;;9998248;29;20254;-78
2024/02/23 00:37:29;;;;;;;2.73;0.60;;;;;4.80;98519.00;;;;9999910;29;20235;-77
2024/02/23 00:42:31;;;;;;;2.17;0.80;;;;;4.70;98544.00;;;;9984342;29;20312;-76
2024/02/23 00:47:32;;;;;;;0.83;0.50;;;;;4.80;98543.00;;;;9990229;29;21133;-77
2024/02/23 00:52:33;;;;;;;3.83;0.90;;;;;4.80;98542.00;;;;9999818;29;20828;-76
2024/02/23 00:57:35;;;;;;;4.80;0.80;;;;;4.70;98549.00;;;;9987689;29;20259;-78
2024/02/23 01:02:37;;;;;;;2.80;0.80;;;;;4.50;98552.00;;;;9991350;29;20588;-78
2024/02/23 01:07:38;;;;;;;5.63;0.80;;;;;4.50;98547.00;;;;9982547;29;20256;-77
2024/02/23 01:12:40;;;;;;;5.07;0.80;;;;;4.50;98552.00;;;;9993224;29;20820;-78
2024/02/23 01:17:41;;;;;;;5.10;2.50;;;;;4.50;98566.00;;;;9994738;29;20256;-76
2024/02/23 01:22:42;;;;;;;3.10;0.97;;;;;4.50;98561.00;;;;9990166;29;20268;-77
2024/02/23 01:27:46;;;;;;;3.00;0.77;;;;;4.50;98552.00;;;;9983787;29;20312;-75
2024/02/23 01:32:48;;;;;;;1.60;0.90;;;;;4.40;98565.00;;;;9988606;29;20221;-77
2024/02/23 01:37:49;;;;;;;1.07;0.73;;;;;4.40;98559.00;;;;10001119;29;20301;-76
2024/02/23 01:43:04;;;;;;;2.80;0.60;;;;;4.50;98571.00;;;;9988494;29;20887;-77
2024/02/23 01:48:06;;;;;;;3.10;0.80;;;;;4.50;98568.00;;;;9981107;29;20285;-77
2024/02/23 01:53:07;;;;;;;5.63;1.00;;;;;4.50;98564.00;;;;9986905;29;20237;-77
2024/02/23 01:58:08;;;;;;;2.80;1.17;;;;;4.50;98570.00;;;;9997212;29;20248;-76
2024/02/23 02:03:09;;;;;;;2.67;0.90;;;;;4.50;98564.00;;;;9968638;29;20238;-76
2024/02/23 02:08:14;;;;;;;3.10;0.97;;;;;4.40;98577.00;;;;9997182;29;20226;-80
2024/02/23 02:13:15;;;;;;;1.80;0.70;;;;;4.30;98572.00;;;;9996146;29;20264;-77
2024/02/23 02:18:17;;;;;;;6.37;1.47;;;;;4.20;98564.00;;;;9995606;29;20233;-77
2024/02/23 02:23:18;;;;;;;6.77;1.47;;;;;4.10;98563.00;;;;9985290;29;20909;-76
2024/02/23 02:28:20;;;;;;;5.23;1.40;;;;;4.20;98561.00;;;;9970311;29;20229;-76
2024/02/23 02:33:22;;;;;;;4.50;1.27;;;;;4.20;98557.00;;;;9985032;29;20241;-77
2024/02/23 02:38:23;;;;;;;4.70;1.60;;;;;4.20;98565.00;;;;10007048;29;20254;-76
2024/02/23 02:43:24;;;;;;;9.87;2.00;;;;;4.30;98557.00;;;;9987825;29;20230;-76
2024/02/23 02:48:26;;;;;;;9.00;1.73;;;;;4.40;98544.00;;;;9966074;29;20229;-76
2024/02/23 02:53:27;;;;;;;6.60;1.50;;;;;4.40;98539.00;;;;9993918;29;20385;-77
2024/02/23 02:58:28;;;;;;;5.60;2.10;;;;;4.40;98551.00;;;;9989470;29;20225;-75
2024/02/23 03:03:29;;;;;;;8.20;2.03;;;;;4.50;98548.00;;;;9993365;29;20879;-76
2024/02/23 03:08:31;;;;;;;8.20;2.10;;;;;4.70;98551.00;;;;9995432;29;20248;-76
2024/02/23 03:13:32;;;;;;;9.73;2.93;;;;;4.70;98556.00;;;;9997987;29;20306;-77
2024/02/23 03:18:33;;;;;;;5.93;2.13;;;;;4.60;98544.00;;;;9995414;29;20225;-77
2024/02/23 03:23:34;;;;;;;4.67;1.30;;;;;4.60;98542.00;;;;9994543;29;20261;-76
2024/02/23 03:28:35;;;;;;;7.23;2.00;;;;;4.60;98541.00;;;;10003498;29;20221;-76
2024/02/23 03:33:37;;;;;;;5.43;1.50;;;;;4.60;98529.00;;;;10003048;29;20229;-76
2024/02/23 03:38:38;;;;;;;5.03;2.13;;;;;4.60;98521.00;;;;9999448;29;20225;-75
2024/02/23 03:43:39;;;;;;;5.73;1.33;;;;;4.70;98534.00;;;;9996665;29;20229;-75
2024/02/23 03:48:40;;;;;;;6.43;1.87;;;;;4.70;98531.00;;;;9993454;29;20253;-75
2024/02/23 03:53:41;;;;;;;7.57;1.77;;;;;4.80;98534.00;;;;9983264;29;20359;-77
2024/02/23 03:58:43;;;;;;;7.70;2.10;;;;;4.90;98527.00;;;;9983218;29;20310;-76
2024/02/23 04:03:44;;;;;;;4.13;1.57;;;;;5.00;98548.00;;;;10003371;29;20308;-75
2024/02/23 04:08:45;;;;;;;7.70;2.17;;;;;5.00;98545.00;;;;9996704;29;20281;-76
2024/02/23 04:13:50;;;;;;;3.73;1.60;;;;;5.00;98540.00;;;;9968353;29;20642;-76
2024/02/23 04:18:54;;;;;;;4.77;1.60;;;;;5.10;98540.00;;;;10000323;29;20241;-76
2024/02/23 04:23:55;;;;;;;7.37;2.23;;;;;5.10;98545.00;;;;10002347;29;20661;-75
2024/02/23 04:28:56;;;;;;;6.30;1.60;;;;;5.10;98541.00;;;;10001704;29;20286;-77
2024/02/23 04:33:57;;;;;;;9.43;1.90;;;;;5.10;98526.00;;;;9999498;29;20237;-76
2024/02/23 04:38:58;;;;;;;7.20;2.30;;;;;5.10;98540.00;;;;9986954;29;20224;-77
2024/02/23 04:44:00;;;;;;;6.80;1.70;;;;;5.10;98531.00;;;;9991541;29;20312;-78
2024/02/23 04:49:04;;;;;;;9.23;2.30;;;;;5.00;98536.00;;;;9989770;29;20229;-78
2024/02/23 04:54:06;;;;;;;6.87;1.87;;;;;4.90;98520.00;;;;10000224;29;20237;-77
2024/02/23 04:59:07;;;;;;;10.30;2.23;;;;;4.90;98521.00;;;;9980685;29;20229;-77
2024/02/23 05:04:08;;;;;;;8.10;1.53;;;;;5.00;98534.00;;;;9992059;29;20312;-77
2024/02/23 05:09:09;;;;;;;4.60;2.53;;;;;5.10;98538.00;;;;9989429;29;20237;-77
2024/02/23 05:14:10;;;;;;;3.90;1.43;;;;;5.10;98542.00;;;;9992760;29;20222;-77
2024/02/23 05:19:12;;;;;;;8.43;1.63;;;;;5.10;98540.00;;;;9956904;29;20252;-77
2024/02/23 05:24:13;;;;;;;7.13;1.67;;;;;5.10;98535.00;;;;9991332;29;20252;-76
2024/02/23 05:29:17;;;;;;;6.50;1.23;;;;;5.10;98544.00;;;;9993589;29;20316;-77
2024/02/23 05:34:19;;;;;;;3.73;1.00;;;;;5.10;98545.00;;;;9984327;29;20823;-77
2024/02/23 05:39:20;;;;;;;5.23;1.40;;;;;5.10;98535.00;;;;9992277;29;20225;-77
2024/02/23 05:44:22;;;;;;;3.80;1.17;;;;;5.10;98543.00;;;;9981811;29;20273;-76
2024/02/23 05:49:23;;;;;;;7.77;1.40;;;;;5.10;98537.00;;;;9992580;29;20230;-80
2024/02/23 05:54:24;;;;;;;7.83;1.60;;;;;5.10;98543.00;;;;9991100;29;20290;-80
2024/02/23 05:59:25;;;;;;;3.90;1.10;;;;;5.10;98529.00;;;;9977160;29;20629;-79
2024/02/23 06:04:27;;;;;;;12.53;2.10;;;;;5.10;98539.00;;;;9974671;29;20289;-79
2024/02/23 06:09:29;;;;;;;11.30;2.20;;;;;5.10;98542.00;;;;9978158;29;20660;-79
2024/02/23 06:14:30;;;;;;;2.27;0.97;;;;;5.10;98523.00;;;;9988154;29;20357;-80
2024/02/23 06:19:32;;;;;;;10.73;1.40;;;;;5.20;98522.00;;;;9980768;29;20222;-78
2024/02/23 06:24:33;;;;;;;7.00;1.23;;;;;5.20;98511.00;;;;9997091;29;20236;-81
2024/02/23 06:29:35;;;;;;;3.27;1.03;;;;;5.20;98503.00;;;;9983827;29;20932;-79
2024/02/23 06:34:36;;;;;;;7.53;1.60;;;;;5.20;98508.00;;;;9985011;29;20229;-79
2024/02/23 06:39:37;;;;;;;6.50;1.47;;;;;5.30;98520.00;;;;10006283;29;20236;-80
2024/02/23 06:44:38;;;;;;;4.67;1.03;;;;;5.40;98516.00;;;;9980420;29;20237;-80
2024/02/23 06:49:43;;;;;;;12.80;1.63;;;;;5.50;98514.00;;;;9949396;29;20365;-81
2024/02/23 06:54:45;;;;;;;9.87;1.47;;;;;5.50;98519.00;;;;9999368;29;20253;-81
2024/02/23 06:59:46;;;;;;;7.90;1.60;;;;;5.60;98514.00;;;;9995485;29;20339;-77
2024/02/23 07:04:47;;;;;;;8.37;1.70;;;;;5.60;98523.00;;;;10017149;29;20256;-77
2024/02/23 07:09:48;;;;;;;10.63;2.07;;;;;5.70;98521.00;;;;9979868;29;20324;-77
2024/02/23 07:14:49;;;;;;;3.53;1.37;;;;;5.70;98540.00;;;;10006262;29;20226;-77
2024/02/23 07:19:51;;;;;;;5.30;1.07;;;;;5.70;98539.00;;;;9996071;29;20232;-78
2024/02/23 07:24:52;;;;;;;7.93;1.50;;;;;5.60;98528.00;;;;9979786;29;20265;-77
2024/02/23 07:29:53;;;;;;;5.70;1.70;;;;;5.70;98526.00;;;;9990580;29;20836;-77
2024/02/23 07:34:54;;;;;;;7.27;1.20;;;;;5.80;98512.00;;;;9956639;29;20265;-78
2024/02/23 07:39:56;;;;;;;8.37;2.07;;;;;6.10;98519.00;;;;9980553;29;20277;-77
2024/02/23 07:44:57;;;;;;;9.33;1.97;;;;;6.50;98507.00;;;;9986698;29;20240;-77
2024/02/23 07:49:58;;;;;;;6.03;1.63;;;;;6.90;98496.00;;;;9978339;29;20237;-77
2024/02/23 07:55:02;;;;;;;6.17;1.43;;;;;7.50;98499.00;;;;9993539;29;20234;-77
2024/02/23 08:00:04;;;;;;;4.73;1.00;;;;;7.90;98479.00;;;;9995284;29;20739;-77
2024/02/23 08:05:12;;;;;;;8.97;1.70;;;;;7.50;98489.00;;;;9995349;29;20221;-79
2024/02/23 08:10:14;;;;;;;8.03;1.17;;;;;7.40;98479.00;;;;9980205;29;20225;-76
2024/02/23 08:15:15;;;;;;;8.27;2.03;;;;;7.30;98480.00;;;;9991500;29;20369;-76
2024/02/23 08:20:16;;;;;;;10.07;2.33;;;;;7.20;98493.00;;;;9998630;29;20344;-78
2024/02/23 08:25:18;;;;;;;4.60;1.70;;;;;6.70;98522.00;;;;9971358;29;20233;-77
2024/02/23 08:30:20;;;;;;;3.20;0.60;;;;;6.60;98527.00;;;;9943599;29;20832;-77
2024/02/23 08:35:21;;;;;;;5.23;1.70;;;;;6.20;98536.00;;;;10003151;29;21278;-77
2024/02/23 08:40:22;;;;;;;3.23;1.20;;;;;5.90;98563.00;;;;9985986;29;20361;-77
2024/02/23 08:45:23;;;;;;;4.10;1.20;;;;;5.80;98552.00;;;;9961166;29;20233;-77
2024/02/23 08:50:25;;;;;;;7.30;1.40;;;;;5.90;98560.00;;;;9990692;29;20685;-77
2024/02/23 08:55:26;;;;;;;3.20;1.20;;;;;6.10;98550.00;;;;9963061;29;20230;-78
2024/02/23 09:00:27;;;;;;;5.83;1.23;;;;;6.00;98538.00;;;;9990002;29;20225;-77
2024/02/23 09:05:28;;;;;;;5.17;2.13;;;;;5.90;98539.00;;;;9985133;29;20735;-77
2024/02/23 09:10:29;;;;;;;8.13;1.27;;;;;6.20;98555.00;;;;9992735;29;20366;-77
2024/02/23 09:15:31;;;;;;;10.27;1.63;;;;;6.30;98552.00;;;;9978907;29;20794;-78
2024/02/23 09:20:32;;;;;;;6.80;1.27;;;;;6.40;98543.00;;;;9976016;29;20859;-79
2024/02/23 09:25:33;;;;;;;4.40;1.33;;;;;6.30;98534.00;;;;9990061;29;20640;-78
2024/02/23 09:30:34;;;;;;;6.20;1.60;;;;;6.50;98547.00;;;;9975934;29;20707;-78
2024/02/23 09:35:36;;;;;;;6.43;2.07;;;;;7.10;98542.00;;;;9971272;29;20799;-79
2024/02/23 09:40:39;;;;;;;10.30;1.47;;;;;7.50;98538.00;;;;9985540;29;20757;-79
2024/02/23 09:45:40;;;;;;;6.60;1.13;;;;;7.80;98557.00;;;;9989060;29;20218;-79
2024/02/23 09:50:42;;;;;;;2.90;1.30;;;;;7.80;98561.00;;;;9983792;29;20312;-78
2024/02/23 09:55:44;;;;;;;7.10;1.83;;;;;8.30;98544.00;;;;9999551;29;20249;-79
2024/02/23 10:00:46;;;;;;;6.07;1.63;;;;;9.00;98553.00;;;;9969558;29;20233;-78
2024/02/23 10:05:47;;;;;;;4.40;1.20;;;;;9.00;98556.00;;;;9996819;29;20231;-79
2024/02/23 10:10:51;;;;;;;6.37;1.63;;;;;8.80;98558.00;;;;9992872;29;20864;-79
2024/02/23 10:15:53;;;;;;;3.83;1.77;;;;;9.40;98564.00;;;;9988370;29;20305;-77
2024/02/23 10:21:17;;;;;;;4.93;2.03;;;;;10.20;98564.00;;;;9974694;29;20288;-81
2024/02/23 10:26:22;;;;;;;3.83;1.43;;;;;10.60;98560.00;;;;9995381;29;20236;-79
2024/02/23 10:31:24;;;;;;;5.37;1.53;;;;;10.90;98555.00;;;;9974473;29;20224;-77
2024/02/23 10:36:30;;;;;;;3.97;1.50;;;;;11.00;98557.00;;;;9991274;29;20316;-75
2024/02/23 10:41:34;;;;;;;3.50;1.30;;;;;11.20;98553.00;;;;9993871;29;20336;-75
2024/02/23 10:46:36;;;;;;;6.87;1.60;;;;;11.30;98560.00;;;;9988787;29;20305;-75
2024/02/23 10:51:40;;;;;;;2.73;0.73;;;;;10.60;98563.00;;;;10001742;29;20231;-74
2024/02/23 10:56:41;;;;;;;7.30;2.00;;;;;10.00;98576.00;;;;9968786;29;20328;-75
2024/02/23 11:01:43;;;;;;;7.27;1.40;;;;;10.00;98596.00;;;;9981460;29;20561;-77
2024/02/23 11:06:51;;;;;;;11.47;2.33;;;;;10.30;98574.00;;;;9983598;29;20236;-77
2024/02/23 11:11:57;;;;;;;7.73;1.60;;;;;10.20;98586.00;;;;9986755;29;20228;-76
2024/02/23 11:17:01;;;;;;;9.80;2.13;;;;;10.30;98589.00;;;;9995379;29;20265;-78
2024/02/23 11:22:03;;;;;;;3.57;1.30;;;;;10.10;98589.00;;;;10002150;29;20752;-77
2024/02/23 11:27:10;;;;;;;5.03;1.33;;;;;9.70;98593.00;;;;10028174;29;20284;-79
2024/02/23 11:32:17;;;;;;;8.73;1.83;;;;;9.30;98593.00;;;;9981134;29;20271;-77
2024/02/23 11:37:18;;;;;;;3.97;1.33;;;;;9.30;98600.00;;;;9992891;29;20230;-78
2024/02/23 11:42:23;;;;;;;6.53;1.70;;;;;9.40;98602.00;;;;9976554;29;20221;-78
2024/02/23 11:47:24;;;;;;;5.90;2.57;;;;;9.50;98601.00;;;;10003513;29;20230;-78
2024/02/23 11:52:26;;;;;;;5.13;1.80;;;;;9.40;98601.00;;;;9995534;29;20221;-79
2024/02/23 11:57:27;;;;;;;6.67;2.13;;;;;9.20;98610.00;;;;9985155;29;20304;-80
2024/02/23 12:02:30;;;;;;;5.47;2.03;;;;;8.80;98608.00;;;;9993910;29;20235;-78
2024/02/23 12:07:32;;;;;;;6.17;1.87;;;;;8.80;98607.00;;;;9946933;29;20248;-78
2024/02/23 12:12:34;;;;;;;4.20;2.47;;;;;9.50;98589.00;;;;9942693;29;20240;-78
2024/02/23 12:17:37;;;;;;;4.70;1.57;;;;;11.00;98593.00;;;;9956330;29;21136;-79
2024/02/23 12:22:40;;;;;;;4.10;1.57;;;;;11.50;98578.00;;;;9961620;29;20856;-79
2024/02/23 12:27:42;;;;;;;6.10;1.87;;;;;11.70;98573.00;;;;9984272;29;20244;-78
2024/02/23 12:32:44;;;;;;;5.47;2.07;;;;;11.80;98582.00;;;;9965332;29;20312;-78
2024/02/23 12:37:45;;;;;;;7.50;2.40;;;;;12.30;98580.00;;;;9987269;29;20860;-79
2024/02/23 12:42:48;;;;;;;4.60;2.57;;;;;11.60;98587.00;;;;9969472;29;20863;-79
2024/02/23 12:47:49;;;;;;;4.57;1.90;;;;;11.00;98574.00;;;;9978423;29;20977;-84
2024/02/23 12:52:52;;;;;;;9.20;1.73;;;;;10.60;98580.00;;;;9976986;29;20217;-83
2024/02/23 12:57:53;;;;;;;4.10;1.53;;;;;10.90;98574.00;;;;9975557;29;20273;-83
2024/02/23 13:02:54;;;;;;;8.00;1.83;;;;;11.00;98572.00;;;;9967422;29;20945;-85
2024/02/23 13:07:55;;;;;;;2.30;1.23;;;;;11.50;98584.00;;;;9975430;29;20236;-83
2024/02/23 13:12:57;;;;;;;3.57;1.40;;;;;11.10;98591.00;;;;9979097;29;20225;-82
2024/02/23 13:17:58;;;;;;;2.10;0.90;;;;;10.90;98586.00;;;;9985306;29;20308;-83
2024/02/23 13:22:59;;;;;;;4.37;1.37;;;;;10.70;98586.00;;;;9948736;29;20334;-84
2024/02/23 13:28:02;;;;;;;2.47;1.40;;;;;10.50;98576.00;;;;10001216;29;20302;-83
2024/02/23 13:33:03;;;;;;;5.20;1.57;;;;;11.00;98571.00;;;;9976821;29;20290;-84
2024/02/23 13:38:05;;;;;;;2.93;1.50;;;;;10.80;98570.00;;;;9971025;29;20229;-83
2024/02/23 13:43:06;;;;;;;5.73;1.10;;;;;10.60;98571.00;;;;9984870;29;20234;-84
2024/02/23 13:48:07;;;;;;;7.30;1.20;;;;;10.30;98572.00;;;;9973379;29;20308;-83
2024/02/23 13:53:08;;;;;;;5.03;1.60;;;;;9.80;98570.00;;;;9966790;29;20225;-83
2024/02/23 13:58:10;;;;;;;4.13;1.03;;;;;9.60;98567.00;;;;9961923;29;20222;-78
2024/02/23 14:03:17;;;;;;;6.07;1.20;;;;;9.40;98558.00;;;;9982027;29;20321;-79
2024/02/23 14:08:18;;;;;;;5.43;1.57;;;;;9.50;98560.00;;;;9958730;29;20623;-78
2024/02/23 14:13:20;;;;;;;3.13;0.93;;;;;11.60;98544.00;;;;9945092;29;20233;-78
2024/02/23 14:18:21;;;;;;;2.33;0.73;;;;;12.00;98546.00;;;;9967137;29;20909;-79
2024/02/23 14:23:22;;;;;;;6.60;1.57;;;;;10.40;98556.00;;;;9978750;29;20232;-78
2024/02/23 14:28:23;;;;;;;7.17;1.07;;;;;10.10;98553.00;;;;9950584;29;20421;-78
2024/02/23 14:33:24;;;;;;;4.87;1.43;;;;;10.40;98545.00;;;;9961511;29;20240;-79
2024/02/23 14:38:25;;;;;;;3.37;1.20;;;;;10.40;98549.00;;;;9951984;29;20308;-78
2024/02/23 14:43:27;;;;;;;5.40;1.30;;;;;10.10;98553.00;;;;9985965;29;20249;-79
2024/02/23 14:48:28;;;;;;;3.90;0.80;;;;;10.00;98548.00;;;;9967979;29;20229;-79
2024/02/23 14:53:29;;;;;;;3.23;0.80;;;;;9.90;98549.00;;;;9974849;29;20229;-79
2024/02/23 14:58:31;;;;;;;1.23;0.70;;;;;9.80;98557.00;;;;9979802;29;20230;-81
2024/02/23 15:03:32;;;;;;;6.13;0.90;;;;;10.00;98555.00;;;;9955882;29;20900;-80
2024/02/23 15:08:33;;;;;;;6.13;1.00;;;;;10.10;98544.00;;;;9983696;29;20240;-83
2024/02/23 15:13:34;;;;;;;5.03;0.90;;;;;11.90;98542.00;;;;9955376;29;20588;-83
2024/02/23 15:18:36;;;;;;;3.47;0.70;;;;;10.70;98564.00;;;;9957210;29;20593;-83
2024/02/23 15:23:37;;;;;;;4.93;0.90;;;;;10.50;98563.00;;;;9966063;29;20233;-82
2024/02/23 15:28:38;;;;;;;2.93;1.00;;;;;10.10;98570.00;;;;9990009;29;20872;-82
2024/02/23 15:33:39;;;;;;;4.60;0.83;;;;;9.60;98565.00;;;;9959852;29;20688;-83
2024/02/23 15:38:41;;;;;;;2.53;0.73;;;;;9.40;98572.00;;;;9942698;29;20230;-82
2024/02/23 15:43:42;;;;;;;4.20;1.13;;;;;9.20;98570.00;;;;9996286;29;20237;-85
2024/02/23 15:48:44;;;;;;;2.67;1.03;;;;;9.10;98566.00;;;;9974908;29;20252;-85
2024/02/23 15:53:45;;;;;;;1.93;0.63;;;;;8.90;98559.00;;;;9970552;29;20294;-84
2024/02/23 15:58:48;;;;;;;4.10;1.03;;;;;8.90;98560.00;;;;10002420;29;20221;-85
2024/02/23 16:03:49;;;;;;;3.20;1.00;;;;;9.00;98565.00;;;;9983817;29;20229;-84
2024/02/23 16:08:50;;;;;;;5.07;1.27;;;;;9.00;98567.00;;;;9980942;29;20933;-84
2024/02/23 16:13:52;;;;;;;4.70;1.33;;;;;8.90;98572.00;;;;9967540;29;20229;-84
2024/02/23 16:18:56;;;;;;;2.03;0.93;;;;;8.70;98574.00;;;;9988653;29;20237;-78
2024/02/23 16:24:00;;;;;;;2.93;0.93;;;;;8.70;98580.00;;;;9984674;29;20238;-77
2024/02/23 16:29:02;;;;;;;4.30;1.10;;;;;8.70;98589.00;;;;9973093;29;20225;-79
2024/02/23 16:34:04;;;;;;;3.40;0.83;;;;;8.60;98580.00;;;;9995587;29;20236;-77
2024/02/23 16:39:07;;;;;;;6.67;1.00;;;;;8.50;98576.00;;;;10005970;29;20229;-78
2024/02/23 16:44:10;;;;;;;3.07;0.97;;;;;8.40;98579.00;;;;9998831;29;20226;-78
2024/02/23 16:49:11;;;;;;;3.40;1.17;;;;;8.10;98580.00;;;;9973457;29;20243;-78
2024/02/23 16:54:13;;;;;;;2.23;0.83;;;;;7.90;98593.00;;;;9968387;29;20229;-77
2024/02/23 16:59:14;;;;;;;4.57;1.20;;;;;7.80;98589.00;;;;9973051;29;20609;-78
2024/02/23 17:04:16;;;;;;;5.43;0.97;;;;;7.60;98593.00;;;;9974960;29;20244;-78
2024/02/23 17:09:17;;;;;;;3.00;0.93;;;;;7.50;98603.00;;;;9988030;29;20240;-78
2024/02/23 17:14:18;;;;;;;5.47;1.00;;;;;7.30;98612.00;;;;9995220;29;20229;-78
2024/02/23 17:19:20;;;;;;;5.63;1.37;;;;;7.20;98614.00;;;;9973267;29;20281;-77
2024/02/23 17:24:21;;;;;;;5.03;0.90;;;;;7.20;98625.00;;;;9961003;29;20233;-76
2024/02/23 17:29:25;;;;;;;5.83;1.40;;;;;7.10;98644.00;;;;9971862;29;20249;-84
2024/02/23 17:34:27;;;;;;;4.30;0.93;;;;;7.10;98652.00;;;;9972111;29;20230;-84
2024/02/23 17:39:28;;;;;;;1.63;0.70;;;;;7.00;98659.00;;;;9974195;29;20221;-84
2024/02/23 17:44:29;;;;;;;3.43;0.70;;;;;7.10;98658.00;;;;9988939;29;20251;-84
2024/02/23 17:49:30;;;;;;;4.37;1.10;;;;;7.20;98669.00;;;;9998756;29;20221;-84
2024/02/23 17:54:32;;;;;;;2.27;0.97;;;;;7.30;98678.00;;;;9990546;29;20231;-85
2024/02/23 17:59:33;;;;;;;6.23;1.40;;;;;7.40;98681.00;;;;9968874;29;20237;-83
2024/02/23 18:04:35;;;;;;;2.10;1.23;;;;;7.40;98688.00;;;;9962294;29;20233;-84
2024/02/23 18:09:36;;;;;;;1.73;1.03;;;;;7.40;98693.00;;;;9988354;29;20232;-84
2024/02/23 18:14:37;;;;;;;2.33;1.20;;;;;7.30;98689.00;;;;9973126;29;20229;-84
2024/02/23 18:19:41;;;;;;;3.00;1.30;;;;;7.30;98689.00;;;;9974819;29;20302;-84
2024/02/23 18:24:43;;;;;;;3.90;1.33;;;;;7.20;98690.00;;;;9949664;29;20627;-84
2024/02/23 18:29:44;;;;;;;3.20;1.13;;;;;7.10;98690.00;;;;9970157;29;21017;-84
2024/02/23 18:34:47;;;;;;;3.73;1.73;;;;;7.00;98688.00;;;;9970384;29;20227;-83
2024/02/23 18:39:48;;;;;;;2.90;1.50;;;;;6.80;98708.00;;;;9982316;29;20233;-83
2024/02/23 18:44:49;;;;;;;5.77;2.07;;;;;6.70;98706.00;;;;9973821;29;20229;-83
2024/02/23 18:49:50;;;;;;;5.10;1.43;;;;;6.70;98698.00;;;;9966916;29;20234;-84
2024/02/23 18:54:53;;;;;;;3.33;1.70;;;;;6.70;98701.00;;;;9976401;29;20222;-83
2024/02/23 18:59:54;;;;;;;4.23;1.90;;;;;6.80;98782.00;;;;9991049;29;20230;-84
2024/02/23 19:04:55;;;;;;;2.23;0.80;;;;;5.80;98791.00;;;;9953995;29;20241;-86
2024/02/23 19:09:56;;;;;;;2.43;0.70;;;;;5.00;98787.00;;;;9971082;29;20233;-84
2024/02/23 19:14:57;;;;;;;2.33;0.90;;;;;4.80;98787.00;;;;10017828;29;20224;-84
2024/02/23 19:19:58;;;;;;;2.13;0.90;;;;;4.70;98796.00;;;;10031602;29;20286;-84
2024/02/23 19:25:00;;;;;;;2.90;0.90;;;;;4.60;98778.00;;;;9970350;29;20329;-86
2024/02/23 19:30:03;;;;;;;4.30;1.10;;;;;4.60;98777.00;;;;9989738;29;20233;-85
2024/02/23 19:35:04;;;;;;;1.00;0.80;;;;;4.60;98773.00;;;;9963145;29;20234;-85
2024/02/23 19:40:09;;;;;;;1.70;1.13;;;;;4.60;98784.00;;;;9975974;29;20350;-86
2024/02/23 19:45:10;;;;;;;2.67;1.67;;;;;4.70;98782.00;;;;9992758;29;20258;-80
2024/02/23 19:50:12;;;;;;;3.43;1.53;;;;;4.70;98772.00;;;;9986396;29;20225;-78
2024/02/23 19:55:13;;;;;;;2.87;0.90;;;;;4.70;98781.00;;;;9993332;29;20638;-81
2024/02/23 20:00:15;;;;;;;3.53;1.00;;;;;4.70;98767.00;;;;9966299;29;20241;-77
2024/02/23 20:05:16;;;;;;;1.90;0.80;;;;;4.70;98766.00;;;;9970470;29;20584;-77
2024/02/23 20:10:19;;;;;;;1.23;0.90;;;;;4.70;98747.00;;;;9945531;29;20244;-78
2024/02/23 20:15:20;;;;;;;1.97;1.10;;;;;4.70;98762.00;;;;10001050;29;20813;-78
2024/02/23 20:20:22;;;;;;;1.17;0.73;;;;;4.70;98769.00;;;;9973981;29;20671;-77
2024/02/23 20:25:23;;;;;;;0.90;0.67;;;;;4.60;98758.00;;;;9974822;29;20268;-78
2024/02/23 20:30:25;;;;;;;2.40;1.27;;;;;4.60;98747.00;;;;9997845;29;20230;-78
2024/02/23 20:35:26;;;;;;;2.47;1.27;;;;;4.70;98760.00;;;;9945817;29;20919;-78
2024/02/23 20:40:28;;;;;;;4.03;1.17;;;;;4.70;98761.00;;;;9997804;29;20229;-78
2024/02/23 20:45:29;;;;;;;2.43;1.10;;;;;4.70;98771.00;;;;9963919;29;20255;-79
2024/02/23 20:50:30;;;;;;;1.73;1.03;;;;;4.70;98773.00;;;;9965836;29;20229;-78
2024/02/23 20:55:31;;;;;;;2.60;1.10;;;;;4.60;98777.00;;;;9941699;29;20237;-79
2024/02/23 21:00:33;;;;;;;3.00;1.30;;;;;4.50;98770.00;;;;9985006;29;20252;-78
2024/02/23 21:05:35;;;;;;;5.03;1.93;;;;;4.50;98764.00;;;;9995036;29;20232;-78
2024/02/23 21:10:37;;;;;;;5.37;2.30;;;;;4.50;98755.00;;;;9979995;29;20278;-78
2024/02/23 21:15:38;;;;;;;4.63;2.83;;;;;4.40;98762.00;;;;9957283;29;20233;-78
2024/02/23 21:20:39;;;;;;;6.80;3.40;;;;;4.50;98771.00;;;;9984523;29;20312;-78
2024/02/23 21:25:41;;;;;;;7.30;4.07;;;;;4.50;98777.00;;;;9970067;29;20245;-78
2024/02/23 21:30:47;;;;;;;6.17;3.40;;;;;4.50;98788.00;;;;9959251;29;20656;-78
2024/02/23 21:35:49;;;;;;;7.47;3.50;;;;;4.50;98777.00;;;;9988012;29;20225;-78
2024/02/23 21:40:50;;;;;;;4.57;3.10;;;;;4.50;98784.00;;;;9979594;29;20221;-78
2024/02/23 21:45:51;;;;;;;4.30;2.03;;;;;4.50;98777.00;;;;9975487;29;20229;-78
2024/02/23 21:50:53;;;;;;;6.63;2.37;;;;;4.40;98786.00;;;;9968541;29;20244;-78
2024/02/23 21:55:54;;;;;;;3.80;1.90;;;;;4.40;98781.00;;;;9977471;29;20229;-77
2024/02/23 22:00:55;;;;;;;5.20;2.20;;;;;4.40;98781.00;;;;9965239;29;20258;-77
2024/02/23 22:05:56;;;;;;;4.57;1.80;;;;;4.30;98787.00;;;;9983729;29;20260;-80
2024/02/23 22:10:58;;;;;;;5.53;2.00;;;;;4.30;98785.00;;;;9984636;29;20256;-82
2024/02/23 22:15:59;;;;;;;3.30;1.90;;;;;4.30;98782.00;;;;9964968;29;20780;-81
2024/02/23 22:21:02;;;;;;;3.90;2.13;;;;;4.30;98787.00;;;;9982264;29;20759;-82
2024/02/23 22:26:04;;;;;;;3.57;1.93;;;;;4.30;98786.00;;;;9988499;29;20277;-80
2024/02/23 22:31:05;;;;;;;3.87;1.97;;;;;4.30;98783.00;;;;9965543;29;20229;-80
2024/02/23 22:36:06;;;;;;;4.03;2.10;;;;;4.20;98793.00;;;;10006556;29;20267;-80
2024/02/23 22:41:07;;;;;;;3.97;2.07;;;;;4.10;98785.00;;;;9968941;29;20861;-80
2024/02/23 22:46:08;;;;;;;3.53;1.70;;;;;4.00;98795.00;;;;9990779;29;20225;-80
2024/02/23 22:51:10;;;;;;;4.40;1.70;;;;;4.00;98777.00;;;;10018832;29;20588;-81
2024/02/23 22:56:11;;;;;;;2.53;1.77;;;;;4.00;98791.00;;;;9979883;29;20237;-81
2024/02/23 23:01:12;;;;;;;4.63;1.93;;;;;4.00;98794.00;;;;10003322;29;20784;-80
2024/02/23 23:06:13;;;;;;;2.30;1.90;;;;;4.10;98785.00;;;;9983918;29;20286;-80
2024/02/23 23:11:28;;;;;;;4.13;2.40;;;;;4.20;98799.00;;;;9976847;29;20887;-80
2024/02/23 23:16:29;;;;;;;5.77;2.93;;;;;4.30;98797.00;;;;9991508;29;20242;-83
2024/02/23 23:21:31;;;;;;;5.03;2.40;;;;;4.30;98797.00;;;;9956324;29;20333;-83
2024/02/23 23:26:32;;;;;;;3.50;2.47;;;;;4.30;98796.00;;;;9972422;29;20237;-82
2024/02/23 23:31:33;;;;;;;4.30;2.57;;;;;4.30;98796.00;;;;9978882;29;20690;-83
2024/02/23 23:36:34;;;;;;;2.30;1.73;;;;;4.30;98793.00;;;;9979982;29;20815;-82
2024/02/23 23:41:35;;;;;;;4.40;2.60;;;;;4.30;98787.00;;;;9987701;29;20753;-82
2024/02/23 23:46:37;;;;;;;3.53;2.40;;;;;4.30;98801.00;;;;9968811;29;20308;-82
2024/02/23 23:51:38;;;;;;;2.83;1.73;;;;;4.30;98804.00;;;;9980485;29;20257;-82
2024/02/23 23:56:58;;;;;;;2.50;2.00;;;;;4.30;98808.00;;;;9966970;29;20306;-82
